UAE245 OMDB-OERK
Flight info
| Callsign | UAE245 |
|---|---|
| Flight time | N/A |
| Altitude | 20000 |
| Route | SENP2F SENPA N571 ALPOB L768 DUSBO P517 KMC |
| Aircraft | A333/H-VGD/A |
Departure
| Time | 2026-04-20 12:22 |
|---|---|
| Airport | Dubai International Airport (OMDB) |
Arrival
| Time | N/A |
|---|---|
| Airport | King Khalid International Airport (OERK) |
| Time | Latitude | Longitude | Altitude | Speed | Heading |
|---|---|---|---|---|---|
| 2026-04-20 12:10 | 25.24953 | 55.36140 | 29 ft | 0 kts | 211° |
| 2026-04-20 12:16 | 25.24952 | 55.36139 | 29 ft | 0 kts | 207° |
| 2026-04-20 12:16 | 25.24936 | 55.36188 | 32 ft | 10 kts | 65° |
| 2026-04-20 12:16 | 25.24979 | 55.36346 | 38 ft | 36 kts | 92° |
| 2026-04-20 12:17 | 25.24913 | 55.36634 | 57 ft | 35 kts | 115° |
| 2026-04-20 12:17 | 25.24846 | 55.36855 | 68 ft | 25 kts | 107° |
| 2026-04-20 12:17 | 25.24796 | 55.37022 | 68 ft | 20 kts | 112° |
| 2026-04-20 12:17 | 25.24739 | 55.37014 | 69 ft | 12 kts | 302° |
| 2026-04-20 12:18 | 25.24782 | 55.36936 | 69 ft | 15 kts | 294° |
| 2026-04-20 12:18 | 25.24830 | 55.36816 | 67 ft | 18 kts | 286° |
| 2026-04-20 12:18 | 25.24895 | 55.36675 | 60 ft | 23 kts | 297° |
| 2026-04-20 12:18 | 25.24980 | 55.36495 | 46 ft | 30 kts | 301° |
| 2026-04-20 12:19 | 25.25099 | 55.36270 | 34 ft | 36 kts | 302° |
| 2026-04-20 12:19 | 25.25242 | 55.36027 | 25 ft | 40 kts | 302° |
| 2026-04-20 12:19 | 25.25394 | 55.35759 | 21 ft | 42 kts | 302° |
| 2026-04-20 12:19 | 25.25573 | 55.35616 | 16 ft | 29 kts | 34° |
| 2026-04-20 12:20 | 25.25653 | 55.35730 | 16 ft | 12 kts | 79° |
| 2026-04-20 12:20 | 25.25628 | 55.35811 | 18 ft | 10 kts | 121° |
| 2026-04-20 12:20 | 25.25599 | 55.35862 | 19 ft | 5 kts | 122° |
| 2026-04-20 12:20 | 25.25589 | 55.35880 | 19 ft | 0 kts | 122° |
| 2026-04-20 12:21 | 25.25588 | 55.35880 | 19 ft | 0 kts | 122° |
| 2026-04-20 12:21 | 25.25497 | 55.36045 | 22 ft | 61 kts | 123° |
| 2026-04-20 12:22 | 25.25130 | 55.36696 | 52 ft | 135 kts | 121° |
| 2026-04-20 12:22 | 25.24523 | 55.37809 | 130 ft | 193 kts | 120° |
| 2026-04-20 12:22 | 25.23743 | 55.39072 | 667 ft | 220 kts | 120° |
| 2026-04-20 12:22 | 25.22855 | 55.40584 | 1336 ft | 245 kts | 119° |
| 2026-04-20 12:23 | 25.22065 | 55.42238 | 2365 ft | 245 kts | 101° |
| 2026-04-20 12:23 | 25.22243 | 55.43869 | 3762 ft | 209 kts | 45° |
| 2026-04-20 12:23 | 25.23344 | 55.44680 | 4778 ft | 199 kts | 3° |
| 2026-04-20 12:23 | 25.24686 | 55.44343 | 5600 ft | 213 kts | 315° |
| 2026-04-20 12:24 | 25.25349 | 55.42977 | 6783 ft | 217 kts | 285° |
| 2026-04-20 12:24 | 25.25604 | 55.41071 | 6373 ft | 299 kts | 276° |
| 2026-04-20 12:24 | 25.25926 | 55.38815 | 6734 ft | 288 kts | 277° |
| 2026-04-20 12:24 | 25.26292 | 55.36647 | 6947 ft | 290 kts | 280° |
| 2026-04-20 12:25 | 25.26712 | 55.29573 | 7232 ft | 292 kts | 267° |
| 2026-04-20 12:25 | 25.26621 | 55.27330 | 7390 ft | 292 kts | 268° |
| 2026-04-20 12:26 | 25.26554 | 55.25082 | 7614 ft | 293 kts | 267° |
| 2026-04-20 12:26 | 25.26468 | 55.22842 | 7941 ft | 292 kts | 274° |
| 2026-04-20 12:26 | 25.27111 | 55.20766 | 8551 ft | 290 kts | 301° |
| 2026-04-20 12:26 | 25.28367 | 55.18994 | 9145 ft | 294 kts | 311° |
| 2026-04-20 12:27 | 25.29756 | 55.17310 | 9703 ft | 298 kts | 313° |
| 2026-04-20 12:27 | 25.30926 | 55.15434 | 10108 ft | 304 kts | 284° |
| 2026-04-20 12:27 | 25.30798 | 55.13162 | 10824 ft | 305 kts | 247° |
| 2026-04-20 12:27 | 25.30025 | 55.10954 | 11238 ft | 317 kts | 253° |
| 2026-04-20 12:28 | 25.29287 | 55.08646 | 11472 ft | 321 kts | 255° |
| 2026-04-20 12:28 | 25.28851 | 55.06263 | 11779 ft | 315 kts | 262° |
| 2026-04-20 12:28 | 25.28561 | 55.03808 | 12121 ft | 338 kts | 261° |
| 2026-04-20 12:28 | 25.28104 | 55.01152 | 12380 ft | 367 kts | 256° |
| 2026-04-20 12:29 | 25.27667 | 54.98335 | 12854 ft | 378 kts | 264° |
| 2026-04-20 12:29 | 25.27426 | 54.95457 | 13450 ft | 373 kts | 266° |
| 2026-04-20 12:29 | 25.27475 | 54.92635 | 14128 ft | 366 kts | 276° |
| 2026-04-20 12:29 | 25.27960 | 54.89953 | 14966 ft | 354 kts | 286° |
| 2026-04-20 12:30 | 25.28385 | 54.87267 | 15504 ft | 355 kts | 277° |
| 2026-04-20 12:30 | 25.28589 | 54.84592 | 16124 ft | 352 kts | 273° |
| 2026-04-20 12:30 | 25.28690 | 54.81790 | 16306 ft | 368 kts | 269° |
| 2026-04-20 12:30 | 25.28601 | 54.79001 | 16991 ft | 366 kts | 270° |